createdAt,value
2017-07-01T00:00:15.094Z,21.7
2017-07-01T00:01:23.182Z,21.7
2017-07-01T00:02:31.273Z,21.6
2017-07-01T00:03:39.359Z,21.6
2017-07-01T00:04:47.446Z,21.6
2017-07-01T00:05:55.533Z,21.6
2017-07-01T00:07:03.621Z,21.6
2017-07-01T00:08:11.706Z,21.6
2017-07-01T00:09:19.792Z,21.6
2017-07-01T00:10:27.878Z,21.6
2017-07-01T00:11:35.967Z,21.8
2017-07-01T00:12:44.055Z,21.6
2017-07-01T00:13:52.143Z,21.5
2017-07-01T00:15:00.478Z,21.7
2017-07-01T00:16:08.318Z,21.6
2017-07-01T00:17:16.404Z,21.6
2017-07-01T00:18:24.491Z,21.5
2017-07-01T00:19:32.581Z,21.6
2017-07-01T00:20:40.667Z,21.6
2017-07-01T00:21:48.753Z,21.6
2017-07-01T00:22:56.842Z,21.6
2017-07-01T00:24:04.929Z,21.6
2017-07-01T00:25:13.016Z,21.6
2017-07-01T00:26:21.105Z,21.6
2017-07-01T00:27:29.190Z,21.7
2017-07-01T00:28:37.315Z,21.6
2017-07-01T00:29:45.365Z,21.6
2017-07-01T00:30:53.453Z,21.6
2017-07-01T00:32:01.541Z,21.6
2017-07-01T00:33:09.628Z,21.6
2017-07-01T00:34:17.716Z,21.6
2017-07-01T00:35:25.803Z,21.6
2017-07-01T00:36:33.890Z,21.5
2017-07-01T00:37:41.976Z,21.6
2017-07-01T00:38:50.063Z,21.6
2017-07-01T00:39:58.151Z,21.6
2017-07-01T00:41:06.239Z,21.6
2017-07-01T00:42:14.325Z,21.5
2017-07-01T00:43:22.414Z,21.6
2017-07-01T00:44:30.499Z,21.6
2017-07-01T00:45:38.587Z,21.5
2017-07-01T00:46:46.674Z,21.6
2017-07-01T00:47:54.762Z,21.6
2017-07-01T00:49:02.847Z,21.5
2017-07-01T00:50:10.936Z,21.5
2017-07-01T00:51:19.023Z,21.5
2017-07-01T00:52:27.110Z,21.6
2017-07-01T00:53:35.198Z,21.6
2017-07-01T00:54:43.286Z,21.6
2017-07-01T00:55:51.372Z,21.5
2017-07-01T00:56:59.461Z,21.5
2017-07-01T00:58:07.546Z,21.5
2017-07-01T00:59:15.635Z,21.6
2017-07-01T01:00:23.722Z,21.5
2017-07-01T01:01:31.808Z,21.5
2017-07-01T01:02:39.897Z,21.6
2017-07-01T01:03:47.985Z,21.6
2017-07-01T01:04:56.072Z,21.5
2017-07-01T01:06:04.161Z,21.4
2017-07-01T01:07:12.247Z,21.5
2017-07-01T01:08:20.334Z,21.5
2017-07-01T01:09:28.421Z,21.5
2017-07-01T01:10:36.508Z,21.5
2017-07-01T01:11:44.594Z,21.5
2017-07-01T01:12:52.683Z,21.5
2017-07-01T01:14:00.770Z,21.5
2017-07-01T01:15:08.858Z,21.4
2017-07-01T01:16:16.945Z,21.5
2017-07-01T01:17:25.065Z,21.5
2017-07-01T01:18:33.119Z,21.5
2017-07-01T01:19:41.205Z,21.5
2017-07-01T01:20:49.292Z,21.5
2017-07-01T01:21:57.381Z,21.5
2017-07-01T01:23:05.468Z,21.4
2017-07-01T01:24:13.556Z,21.4
2017-07-01T01:25:21.643Z,21.4
2017-07-01T01:26:29.728Z,21.4
2017-07-01T01:27:37.818Z,21.4
2017-07-01T01:28:45.901Z,21.4
2017-07-01T01:29:53.990Z,21.4
2017-07-01T01:31:02.075Z,21.4
2017-07-01T01:32:10.165Z,21.5
2017-07-01T01:33:18.253Z,21.5
2017-07-01T01:34:26.350Z,21.4
2017-07-01T01:35:34.427Z,21.4
2017-07-01T01:36:42.513Z,21.4
2017-07-01T01:37:50.601Z,21.4
2017-07-01T01:38:58.683Z,21.3
2017-07-01T01:40:06.772Z,21.4
2017-07-01T01:41:14.861Z,21.4
2017-07-01T01:42:22.972Z,21.4
2017-07-01T01:43:31.035Z,21.4
2017-07-01T01:44:39.124Z,21.4
2017-07-01T01:45:47.210Z,21.3
2017-07-01T01:46:55.297Z,21.3
2017-07-01T01:48:03.384Z,21.4
2017-07-01T01:49:11.471Z,21.4
2017-07-01T01:50:19.558Z,21.4
2017-07-01T01:51:27.647Z,21.4
2017-07-01T01:52:35.732Z,21.4
2017-07-01T01:53:43.820Z,21.4
2017-07-01T01:54:51.910Z,21.4
2017-07-01T01:55:59.996Z,21.4
2017-07-01T01:57:08.082Z,21.4
2017-07-01T01:58:16.169Z,21.3
2017-07-01T01:59:24.257Z,21.4
2017-07-01T02:00:32.344Z,21.4
2017-07-01T02:01:40.432Z,21.3
2017-07-01T02:02:48.521Z,21.4
2017-07-01T02:03:56.607Z,21.4
2017-07-01T02:05:04.695Z,21.3
2017-07-01T02:06:12.784Z,21.3
2017-07-01T02:07:20.869Z,21.3
2017-07-01T02:08:29.047Z,21.4
2017-07-01T02:09:37.042Z,21.3
2017-07-01T02:10:45.131Z,21.3
2017-07-01T02:11:53.218Z,21.4
2017-07-01T02:13:01.305Z,21.3
2017-07-01T02:14:09.393Z,21.4
2017-07-01T02:15:17.480Z,21.3
2017-07-01T02:16:25.567Z,21.3
2017-07-01T02:17:33.653Z,21.3
2017-07-01T02:18:41.739Z,21.4
2017-07-01T02:19:49.826Z,21.4
2017-07-01T02:20:57.913Z,21.3
2017-07-01T02:22:06.000Z,21.3
2017-07-01T02:23:14.088Z,21.3
2017-07-01T02:24:22.176Z,21.3
2017-07-01T02:25:30.362Z,21.3
2017-07-01T02:26:38.350Z,21.3
2017-07-01T02:27:46.436Z,21.3
2017-07-01T02:28:54.572Z,21.3
2017-07-01T02:30:02.609Z,21.3
2017-07-01T02:31:10.695Z,21.3
2017-07-01T02:32:18.823Z,21.3
2017-07-01T02:33:26.873Z,21.3
2017-07-01T02:34:34.960Z,21.3
2017-07-01T02:36:51.133Z,21.3
2017-07-01T02:37:59.219Z,21.3
2017-07-01T02:39:07.305Z,21.3
2017-07-01T02:40:15.393Z,21.2
2017-07-01T02:41:23.480Z,21.3
2017-07-01T02:42:31.663Z,21.2
2017-07-01T02:43:39.656Z,21.3
2017-07-01T02:44:47.744Z,21.3
2017-07-01T02:45:55.830Z,21.3
2017-07-01T02:47:03.917Z,21.3
2017-07-01T02:48:12.003Z,21.2
2017-07-01T02:49:20.090Z,21.3
2017-07-01T02:50:28.179Z,21.2
2017-07-01T02:51:36.266Z,21.2
2017-07-01T02:52:44.351Z,21.2
2017-07-01T02:53:52.439Z,21.2
2017-07-01T02:55:00.644Z,21.2
2017-07-01T02:56:08.614Z,21.2
2017-07-01T02:57:16.699Z,21.2
2017-07-01T02:58:24.789Z,21.1
2017-07-01T02:59:32.883Z,21.15
2017-07-01T03:00:40.961Z,21.1
2017-07-01T03:01:49.049Z,21.1
2017-07-01T03:02:57.138Z,21.2
2017-07-01T03:04:05.224Z,21.2
2017-07-01T03:05:13.310Z,21.1
2017-07-01T03:06:21.407Z,21.2
2017-07-01T03:07:29.495Z,21.1
2017-07-01T03:08:37.583Z,21.2
2017-07-01T03:09:45.670Z,21.1
2017-07-01T03:10:53.758Z,21.2
2017-07-01T03:12:01.845Z,21.2
2017-07-01T03:13:09.932Z,21.2
2017-07-01T03:14:18.018Z,21.2
2017-07-01T03:15:26.103Z,21.1
2017-07-01T03:16:34.198Z,21.2
2017-07-01T03:17:42.279Z,21.1
2017-07-01T03:18:50.365Z,21.1
2017-07-01T03:19:58.452Z,21.2
2017-07-01T03:21:06.540Z,21.1
2017-07-01T03:22:14.628Z,21.0
2017-07-01T03:23:22.715Z,21.1
2017-07-01T03:24:30.801Z,21.1
2017-07-01T03:25:38.886Z,21.1
2017-07-01T03:26:46.974Z,21.1
2017-07-01T03:27:55.062Z,21.2
2017-07-01T03:29:03.149Z,21.0
2017-07-01T03:30:11.238Z,21.1
2017-07-01T03:31:19.322Z,21.0
2017-07-01T03:32:27.436Z,21.0
2017-07-01T03:33:35.500Z,21.1
2017-07-01T03:34:43.584Z,21.1
2017-07-01T03:35:51.670Z,21.1
2017-07-01T03:36:59.758Z,21.0
2017-07-01T03:38:07.845Z,21.0
2017-07-01T03:39:15.934Z,21.0
2017-07-01T03:40:24.022Z,21.0
2017-07-01T03:41:32.106Z,21.1
2017-07-01T03:42:40.194Z,21.1
2017-07-01T03:43:48.282Z,21.1
2017-07-01T03:44:56.371Z,21.1
2017-07-01T03:46:04.454Z,21.1
2017-07-01T03:47:12.543Z,21.1
2017-07-01T03:48:20.630Z,21.0
2017-07-01T03:49:28.717Z,21.1
2017-07-01T03:50:36.828Z,21.1
2017-07-01T03:51:44.892Z,21.1
2017-07-01T03:52:52.979Z,21.1
2017-07-01T03:54:01.067Z,21.1
2017-07-01T03:55:09.153Z,21.0
2017-07-01T03:56:17.238Z,21.1
2017-07-01T03:57:25.325Z,21.1
2017-07-01T03:58:33.974Z,21.1
2017-07-01T03:59:41.500Z,21.1
2017-07-01T04:00:49.591Z,21.0
2017-07-01T04:01:57.674Z,21.0
2017-07-01T04:03:05.763Z,21.1
2017-07-01T04:04:13.848Z,21.1
2017-07-01T04:05:21.935Z,21.0
2017-07-01T04:06:30.067Z,21.1
2017-07-01T04:07:38.113Z,21.1
2017-07-01T04:08:46.197Z,21.0
2017-07-01T04:09:54.283Z,21.0
2017-07-01T04:11:02.371Z,21.1
2017-07-01T04:12:10.458Z,21.0
2017-07-01T04:13:18.598Z,21.0
2017-07-01T04:14:26.632Z,20.9
2017-07-01T04:15:34.718Z,21.1
2017-07-01T04:16:42.804Z,21.1
2017-07-01T04:17:50.891Z,21.0
2017-07-01T04:18:58.979Z,20.9
2017-07-01T04:20:07.066Z,21.1
2017-07-01T04:21:15.178Z,21.1
2017-07-01T04:22:23.241Z,21.0
2017-07-01T04:23:31.327Z,21.0
2017-07-01T04:24:39.414Z,21.0
2017-07-01T04:25:48.127Z,21.0
2017-07-01T04:26:55.664Z,20.9
2017-07-01T04:28:03.674Z,20.9
2017-07-01T04:29:11.761Z,21.0
2017-07-01T04:30:19.849Z,21.0
2017-07-01T04:31:27.935Z,20.9
2017-07-01T04:32:36.022Z,21.0
2017-07-01T04:33:44.336Z,20.9
2017-07-01T04:34:52.203Z,20.9
2017-07-01T04:36:00.285Z,20.9
2017-07-01T04:37:08.371Z,20.9
2017-07-01T04:38:16.458Z,20.9
2017-07-01T04:39:24.548Z,20.9
2017-07-01T04:40:32.639Z,20.9
2017-07-01T04:41:40.727Z,20.9
2017-07-01T04:42:48.813Z,20.9
2017-07-01T04:43:56.897Z,20.9
2017-07-01T04:45:04.987Z,20.9
2017-07-01T04:46:13.071Z,20.9
2017-07-01T04:47:21.159Z,20.9
2017-07-01T04:48:29.246Z,20.9
2017-07-01T04:49:37.333Z,20.9
2017-07-01T04:50:45.419Z,20.9
2017-07-01T04:51:53.507Z,20.9
2017-07-01T04:53:01.593Z,20.9
2017-07-01T04:54:09.739Z,20.9
2017-07-01T04:55:17.765Z,20.9
2017-07-01T04:56:25.852Z,20.9
2017-07-01T04:57:33.938Z,20.9
2017-07-01T04:58:42.026Z,20.9
2017-07-01T04:59:50.146Z,20.8
2017-07-01T05:00:58.203Z,20.9
2017-07-01T05:02:06.288Z,20.9
2017-07-01T05:03:14.383Z,20.9
2017-07-01T05:04:22.468Z,20.8
2017-07-01T05:05:30.556Z,20.9
2017-07-01T05:06:38.644Z,20.9
2017-07-01T05:07:46.733Z,20.9
2017-07-01T05:08:54.818Z,20.8
2017-07-01T05:10:02.905Z,20.8
2017-07-01T05:11:11.237Z,20.9
2017-07-01T05:12:19.173Z,20.9
2017-07-01T05:13:27.632Z,20.8
2017-07-01T05:14:35.253Z,20.9
2017-07-01T05:15:43.340Z,20.8
2017-07-01T05:16:51.606Z,20.8
2017-07-01T05:17:59.512Z,20.9
2017-07-01T05:19:07.601Z,20.8
2017-07-01T05:20:15.686Z,20.8
2017-07-01T05:21:23.773Z,20.9
2017-07-01T05:22:31.859Z,20.8
2017-07-01T05:23:39.947Z,20.8
2017-07-01T05:24:48.032Z,20.8
2017-07-01T05:25:56.126Z,20.8
2017-07-01T05:27:04.505Z,20.8
2017-07-01T05:28:12.602Z,20.8
2017-07-01T05:29:20.383Z,20.8
2017-07-01T05:30:28.557Z,20.8
2017-07-01T05:31:36.554Z,20.8
2017-07-01T05:32:44.640Z,20.8
2017-07-01T05:33:52.727Z,20.8
2017-07-01T05:35:00.884Z,20.8
2017-07-01T05:36:08.900Z,20.7
2017-07-01T05:37:16.986Z,20.8
2017-07-01T05:38:25.075Z,20.7
2017-07-01T05:39:33.162Z,20.8
2017-07-01T05:40:41.248Z,20.8
2017-07-01T05:41:49.336Z,20.9
2017-07-01T05:42:57.422Z,20.8
2017-07-01T05:44:05.508Z,20.8
2017-07-01T05:45:13.594Z,20.8
2017-07-01T05:46:21.707Z,20.8
2017-07-01T05:47:29.770Z,20.8
2017-07-01T05:48:37.859Z,20.7
2017-07-01T05:49:45.944Z,20.7
2017-07-01T05:50:54.030Z,20.8
2017-07-01T05:52:02.116Z,20.7
2017-07-01T05:53:10.202Z,20.7
2017-07-01T05:54:18.291Z,20.7
2017-07-01T05:55:26.375Z,20.7
2017-07-01T05:56:36.116Z,20.7
2017-07-01T05:57:42.551Z,20.7
2017-07-01T05:58:50.636Z,20.7
2017-07-01T05:59:58.805Z,20.8
2017-07-01T06:01:06.810Z,20.8
2017-07-01T06:02:14.897Z,20.7
2017-07-01T06:03:22.983Z,20.7
2017-07-01T06:04:31.070Z,20.8
2017-07-01T06:05:39.159Z,20.7
2017-07-01T06:06:47.246Z,20.7
2017-07-01T06:07:55.331Z,20.7
2017-07-01T06:09:03.419Z,20.7
2017-07-01T06:10:11.514Z,20.7
2017-07-01T06:11:19.602Z,20.8
2017-07-01T06:12:27.689Z,20.7
2017-07-01T06:13:35.776Z,20.7
2017-07-01T06:14:43.862Z,20.7
2017-07-01T06:15:51.949Z,20.7
2017-07-01T06:17:00.037Z,20.8
2017-07-01T06:18:08.139Z,20.7
2017-07-01T06:19:16.209Z,20.7
2017-07-01T06:20:24.295Z,20.8
2017-07-01T06:21:32.381Z,20.8
2017-07-01T06:22:40.469Z,20.8
2017-07-01T06:23:48.556Z,20.8
2017-07-01T06:24:56.644Z,20.7
2017-07-01T06:26:04.730Z,20.8
2017-07-01T06:27:12.818Z,20.7
2017-07-01T06:28:20.902Z,20.7
2017-07-01T06:29:28.991Z,20.7
2017-07-01T06:30:37.078Z,20.7
2017-07-01T06:31:45.164Z,20.7
2017-07-01T06:32:53.252Z,20.7
2017-07-01T06:34:01.339Z,20.7
2017-07-01T06:42:30.378Z,20.7
2017-07-01T06:43:38.464Z,20.7
2017-07-01T06:44:46.551Z,20.7
2017-07-01T06:45:54.637Z,20.7
2017-07-01T06:47:02.722Z,20.7
2017-07-01T06:48:10.810Z,20.7
2017-07-01T06:49:18.903Z,20.7
2017-07-01T06:50:27.023Z,20.6
2017-07-01T06:51:35.078Z,20.6
2017-07-01T06:52:43.165Z,20.6
2017-07-01T06:53:51.251Z,20.7
2017-07-01T06:54:59.366Z,20.6
2017-07-01T06:56:07.425Z,20.6
2017-07-01T06:57:15.515Z,20.6
2017-07-01T06:58:24.105Z,20.7
2017-07-01T06:59:31.686Z,20.6
2017-07-01T07:00:39.773Z,20.6
2017-07-01T07:01:48.317Z,20.6
2017-07-01T07:02:55.955Z,20.6
2017-07-01T07:04:04.043Z,20.6
2017-07-01T07:05:12.129Z,20.6
2017-07-01T07:06:20.215Z,20.6
2017-07-01T07:07:28.304Z,20.6
2017-07-01T07:08:36.392Z,20.5
2017-07-01T07:09:44.477Z,20.5
2017-07-01T07:10:52.564Z,20.5
2017-07-01T07:12:00.748Z,20.5
2017-07-01T07:13:08.859Z,20.6
2017-07-01T07:14:16.824Z,20.5
2017-07-01T07:15:24.910Z,20.5
2017-07-01T07:16:33.697Z,20.6
2017-07-01T07:17:41.994Z,20.6
2017-07-01T07:18:49.171Z,20.6
2017-07-01T07:19:57.258Z,20.6
2017-07-01T07:21:05.345Z,20.5
2017-07-01T07:22:13.430Z,20.5
2017-07-01T07:23:21.519Z,20.5
2017-07-01T07:24:29.606Z,20.5
2017-07-01T07:25:37.692Z,20.6
2017-07-01T07:26:45.778Z,20.5
2017-07-01T07:27:53.864Z,20.5
2017-07-01T07:29:01.997Z,20.5
2017-07-01T07:30:10.038Z,20.5
2017-07-01T07:31:18.138Z,20.5
2017-07-01T07:32:26.211Z,20.5
2017-07-01T07:33:34.296Z,20.5
2017-07-01T07:34:42.383Z,20.4
2017-07-01T07:35:50.470Z,20.5
2017-07-01T07:36:58.556Z,20.4
2017-07-01T07:38:06.646Z,20.5
2017-07-01T07:39:14.733Z,20.5
2017-07-01T07:40:22.819Z,20.5
2017-07-01T07:41:30.905Z,20.5
2017-07-01T07:42:38.988Z,20.5
2017-07-01T07:43:47.077Z,20.4
2017-07-01T07:44:55.166Z,20.4
2017-07-01T07:46:03.286Z,20.5
2017-07-01T07:47:11.338Z,20.5
2017-07-01T07:48:19.426Z,20.5
2017-07-01T07:49:27.513Z,20.4
2017-07-01T07:50:35.597Z,20.5
2017-07-01T07:51:43.684Z,20.5
2017-07-01T07:52:51.770Z,20.3
2017-07-01T07:53:59.859Z,20.5
2017-07-01T07:55:07.945Z,20.5
2017-07-01T07:56:16.033Z,20.5
2017-07-01T07:57:24.119Z,20.4
2017-07-01T07:58:32.208Z,20.5
2017-07-01T07:59:40.294Z,20.4
2017-07-01T08:00:48.382Z,20.5
2017-07-01T08:01:56.472Z,20.4
2017-07-01T08:03:04.645Z,20.5
2017-07-01T08:04:12.653Z,20.5
2017-07-01T08:05:20.739Z,20.5
2017-07-01T08:06:28.827Z,20.6
2017-07-01T08:07:36.916Z,20.4
2017-07-01T08:08:44.999Z,20.4
2017-07-01T08:09:53.087Z,20.5
2017-07-01T08:11:01.172Z,20.5
2017-07-01T08:12:09.260Z,20.3
2017-07-01T08:13:17.346Z,20.5
2017-07-01T08:14:25.435Z,20.3
2017-07-01T08:15:33.523Z,20.5
2017-07-01T08:16:41.632Z,20.5
2017-07-01T08:17:49.693Z,20.5
2017-07-01T08:18:57.780Z,20.4
2017-07-01T08:20:05.917Z,20.5
2017-07-01T08:21:13.958Z,20.5
2017-07-01T08:22:22.045Z,20.4
2017-07-01T08:23:30.132Z,20.4
2017-07-01T08:24:38.220Z,20.5
2017-07-01T08:25:46.305Z,20.5
2017-07-01T08:26:54.392Z,20.5
2017-07-01T08:28:02.478Z,20.5
2017-07-01T08:29:10.564Z,20.5
2017-07-01T08:30:18.654Z,20.5
2017-07-01T08:31:26.742Z,20.4
2017-07-01T08:32:34.826Z,20.5
2017-07-01T08:33:42.914Z,20.4
2017-07-01T08:34:51.002Z,20.5
2017-07-01T08:35:59.085Z,20.5
2017-07-01T08:37:07.172Z,20.4
2017-07-01T08:38:15.258Z,20.5
2017-07-01T08:39:23.345Z,20.5
2017-07-01T08:40:31.434Z,20.5
2017-07-01T08:41:39.519Z,20.5
2017-07-01T08:42:47.607Z,20.5
2017-07-01T08:43:55.694Z,20.5
2017-07-01T08:45:03.779Z,20.4
2017-07-01T08:46:11.866Z,20.5
2017-07-01T08:47:19.952Z,20.5
2017-07-01T08:48:28.042Z,20.4
2017-07-01T08:49:36.131Z,20.5
2017-07-01T08:50:44.214Z,20.5
2017-07-01T08:51:52.302Z,20.5
2017-07-01T08:53:00.391Z,20.4
2017-07-01T08:54:08.476Z,20.5
2017-07-01T08:55:16.562Z,20.5
2017-07-01T08:56:24.647Z,20.4
2017-07-01T08:57:32.734Z,20.6
2017-07-01T08:58:40.822Z,20.5
2017-07-01T08:59:48.910Z,20.5
2017-07-01T09:00:56.994Z,20.5
2017-07-01T09:02:05.084Z,20.5
2017-07-01T09:03:13.169Z,20.6
2017-07-01T09:04:21.254Z,20.5
2017-07-01T09:05:29.342Z,20.5
2017-07-01T09:06:37.425Z,20.5
2017-07-01T09:07:45.511Z,20.5
2017-07-01T09:08:53.599Z,20.4
2017-07-01T09:10:01.686Z,20.4
2017-07-01T09:11:09.774Z,20.5
2017-07-01T09:12:17.861Z,20.4
2017-07-01T09:13:25.947Z,20.5
2017-07-01T09:14:34.034Z,20.4
2017-07-01T09:15:42.119Z,20.4
2017-07-01T09:16:50.204Z,20.4
2017-07-01T09:17:58.293Z,20.5
2017-07-01T09:19:06.378Z,20.5
2017-07-01T09:20:14.468Z,20.5
2017-07-01T09:21:22.554Z,20.5
2017-07-01T09:22:30.641Z,20.5
2017-07-01T09:23:38.726Z,20.5
2017-07-01T09:24:46.811Z,20.6
2017-07-01T09:25:54.896Z,20.5
2017-07-01T09:27:02.987Z,20.5
2017-07-01T09:28:11.076Z,20.5
2017-07-01T09:29:19.163Z,20.5
2017-07-01T09:30:27.249Z,20.5
2017-07-01T09:31:35.334Z,20.5
2017-07-01T09:32:43.421Z,20.5
2017-07-01T09:33:51.508Z,20.5
2017-07-01T09:34:59.592Z,20.6
2017-07-01T09:36:07.683Z,20.6
2017-07-01T09:37:15.767Z,20.6
2017-07-01T09:38:23.879Z,20.6
2017-07-01T09:39:31.942Z,20.6
2017-07-01T09:40:40.028Z,20.7
2017-07-01T09:41:48.139Z,20.6
2017-07-01T09:42:56.203Z,20.7
2017-07-01T09:44:04.291Z,20.7
2017-07-01T09:45:12.377Z,20.7
2017-07-01T09:46:20.464Z,20.7
2017-07-01T09:47:28.550Z,20.7
2017-07-01T09:48:36.637Z,20.7
2017-07-01T09:49:44.825Z,20.7
2017-07-01T09:50:52.812Z,20.7
2017-07-01T09:52:00.901Z,20.7
2017-07-01T09:53:08.986Z,20.7
2017-07-01T09:54:17.071Z,20.7
2017-07-01T09:55:25.159Z,20.8
2017-07-01T09:56:33.250Z,20.8
2017-07-01T09:57:41.333Z,20.7
2017-07-01T09:58:49.420Z,20.7
2017-07-01T09:59:57.516Z,20.7
2017-07-01T10:01:05.603Z,20.7
2017-07-01T10:02:13.690Z,20.8
2017-07-01T10:03:21.789Z,20.7
2017-07-01T10:04:29.876Z,20.8
2017-07-01T10:05:37.962Z,20.8
2017-07-01T10:06:46.056Z,20.8
2017-07-01T10:07:54.144Z,20.7
2017-07-01T10:09:02.225Z,20.7
2017-07-01T10:10:10.323Z,20.9
2017-07-01T10:11:18.410Z,20.8
2017-07-01T10:12:26.499Z,20.8
2017-07-01T10:13:34.654Z,20.8
2017-07-01T10:14:42.678Z,20.8
2017-07-01T10:15:50.764Z,20.8
2017-07-01T10:16:58.850Z,20.8
2017-07-01T10:18:06.937Z,20.8
2017-07-01T10:19:15.025Z,20.8
2017-07-01T10:20:23.118Z,20.8
2017-07-01T10:21:31.204Z,20.8
2017-07-01T10:22:39.292Z,20.8
2017-07-01T10:23:47.380Z,20.8
2017-07-01T10:24:55.467Z,20.9
2017-07-01T10:26:03.552Z,20.9
2017-07-01T10:27:11.642Z,20.9
2017-07-01T10:28:19.725Z,20.9
2017-07-01T10:29:27.816Z,20.9
2017-07-01T10:30:35.903Z,20.9
2017-07-01T10:31:43.996Z,20.8
2017-07-01T10:32:52.087Z,20.9
2017-07-01T10:34:00.172Z,20.9
2017-07-01T10:35:08.260Z,20.9
2017-07-01T10:36:16.345Z,20.9
2017-07-01T10:37:24.432Z,20.9
2017-07-01T10:38:32.518Z,20.9
2017-07-01T10:39:40.608Z,20.9
2017-07-01T10:40:48.695Z,20.9
2017-07-01T10:41:56.782Z,20.9
2017-07-01T10:43:04.869Z,20.9
2017-07-01T10:44:12.953Z,20.9
2017-07-01T10:45:21.041Z,20.9
2017-07-01T10:46:29.130Z,20.9
2017-07-01T10:47:37.223Z,21.0
2017-07-01T10:48:45.306Z,20.9
2017-07-01T10:49:53.417Z,20.9
2017-07-01T10:51:01.481Z,20.9
2017-07-01T10:52:09.569Z,20.9
2017-07-01T10:53:17.653Z,20.9
2017-07-01T10:54:25.742Z,21.0
2017-07-01T10:55:33.829Z,20.9
2017-07-01T10:56:41.917Z,20.9
2017-07-01T10:57:50.005Z,20.9
2017-07-01T10:58:58.092Z,20.9
2017-07-01T11:00:06.182Z,21.0
2017-07-01T11:01:14.265Z,21.0
2017-07-01T11:02:22.351Z,20.9
2017-07-01T11:03:30.438Z,20.9
2017-07-01T11:04:38.527Z,20.9
2017-07-01T11:05:46.616Z,21.0
2017-07-01T11:06:54.701Z,20.9
2017-07-01T11:08:02.789Z,20.9
2017-07-01T11:09:10.882Z,20.9
2017-07-01T11:10:18.963Z,20.9
2017-07-01T11:11:27.051Z,20.9
2017-07-01T11:12:35.136Z,20.9
2017-07-01T11:13:43.234Z,20.9
2017-07-01T11:14:51.322Z,20.9
2017-07-01T11:15:59.409Z,20.9
2017-07-01T11:17:07.497Z,20.9
2017-07-01T11:18:15.582Z,20.9
2017-07-01T11:19:23.670Z,20.9
2017-07-01T11:20:31.756Z,20.9
2017-07-01T11:21:39.844Z,20.9
2017-07-01T11:22:47.932Z,20.9
2017-07-01T11:23:56.017Z,20.8
2017-07-01T11:25:04.103Z,20.8
2017-07-01T11:26:12.191Z,20.8
2017-07-01T11:27:20.281Z,20.8
2017-07-01T11:28:28.374Z,20.8
2017-07-01T11:29:36.452Z,20.8
2017-07-01T11:30:44.550Z,20.9
2017-07-01T11:31:52.635Z,20.9
2017-07-01T11:33:00.722Z,20.8
2017-07-01T11:34:08.810Z,20.8
2017-07-01T11:35:16.896Z,20.8
2017-07-01T11:36:24.984Z,20.9
2017-07-01T11:37:33.070Z,20.8
2017-07-01T11:38:41.157Z,20.8
2017-07-01T11:39:49.245Z,20.8
2017-07-01T11:40:57.330Z,20.8
2017-07-01T11:42:05.421Z,20.8
2017-07-01T11:43:13.505Z,20.8
2017-07-01T11:44:21.594Z,20.8
2017-07-01T11:45:29.679Z,20.8
2017-07-01T11:46:37.767Z,20.7
2017-07-01T11:47:45.852Z,20.8
2017-07-01T11:48:53.941Z,20.9
2017-07-01T11:50:02.025Z,20.8
2017-07-01T11:51:10.114Z,20.8
2017-07-01T11:52:18.199Z,20.8
2017-07-01T11:53:26.288Z,20.7
2017-07-01T11:54:34.375Z,20.7
2017-07-01T11:55:42.461Z,20.8
2017-07-01T11:56:50.548Z,20.8
2017-07-01T11:57:58.635Z,20.7
2017-07-01T11:59:06.721Z,20.8
2017-07-01T12:00:14.810Z,20.8
2017-07-01T12:01:22.895Z,20.8
2017-07-01T12:02:30.982Z,20.8
2017-07-01T12:03:39.070Z,20.9
2017-07-01T12:04:47.156Z,20.8
2017-07-01T12:05:55.243Z,20.8
2017-07-01T12:07:03.328Z,20.7
2017-07-01T12:08:11.419Z,20.8
2017-07-01T12:09:19.503Z,20.8
2017-07-01T12:10:27.590Z,20.8
2017-07-01T12:11:35.677Z,20.7
2017-07-01T12:12:43.765Z,20.8
2017-07-01T12:13:51.850Z,20.7
2017-07-01T12:14:59.936Z,20.8
2017-07-01T12:16:08.043Z,20.8
2017-07-01T12:17:16.136Z,20.8
2017-07-01T12:18:24.198Z,20.8
2017-07-01T12:19:32.286Z,20.8
2017-07-01T12:20:40.371Z,20.9
2017-07-01T12:21:48.459Z,20.8
2017-07-01T12:22:56.547Z,20.8
2017-07-01T12:24:04.633Z,20.8
2017-07-01T12:25:12.720Z,20.8
2017-07-01T12:26:20.806Z,20.8
2017-07-01T12:27:28.893Z,20.8
2017-07-01T12:28:36.980Z,20.8
2017-07-01T12:29:45.068Z,20.9
2017-07-01T12:30:53.154Z,20.9
2017-07-01T12:32:01.242Z,20.9
2017-07-01T12:33:09.330Z,20.8
2017-07-01T12:34:17.415Z,20.8
2017-07-01T12:35:25.505Z,20.8
2017-07-01T12:36:33.590Z,20.9
2017-07-01T12:37:41.675Z,20.8
2017-07-01T12:38:49.762Z,20.8
2017-07-01T12:39:57.888Z,20.8
2017-07-01T12:41:05.937Z,20.9
2017-07-01T12:42:14.026Z,20.8
2017-07-01T12:43:22.111Z,20.9
2017-07-01T12:44:30.200Z,20.9
2017-07-01T12:45:38.287Z,20.8
2017-07-01T12:46:46.372Z,20.8
2017-07-01T12:47:54.459Z,20.8
2017-07-01T12:49:02.583Z,20.9
2017-07-01T12:50:10.634Z,20.9
2017-07-01T12:51:18.719Z,20.9
2017-07-01T12:52:26.806Z,20.9
2017-07-01T12:53:34.893Z,20.9
2017-07-01T12:54:42.984Z,20.9
2017-07-01T12:55:51.069Z,20.9
2017-07-01T12:56:59.195Z,20.9
2017-07-01T12:58:07.241Z,20.8
2017-07-01T12:59:15.328Z,20.9
2017-07-01T13:00:23.414Z,20.9
2017-07-01T13:01:31.501Z,20.9
2017-07-01T13:02:39.590Z,20.9
2017-07-01T13:03:47.675Z,20.8
2017-07-01T13:04:55.764Z,20.8
2017-07-01T13:06:03.847Z,20.8
2017-07-01T13:07:11.935Z,20.9
2017-07-01T13:08:20.021Z,20.9
2017-07-01T13:09:28.107Z,20.9
2017-07-01T13:10:36.194Z,20.9
2017-07-01T13:11:44.282Z,20.8
2017-07-01T13:12:52.395Z,20.8
2017-07-01T13:14:00.515Z,20.9
2017-07-01T13:15:08.543Z,20.8
2017-07-01T13:16:16.630Z,20.8
2017-07-01T13:17:24.716Z,20.8
2017-07-01T13:18:32.805Z,20.9
2017-07-01T13:19:40.911Z,20.9
2017-07-01T13:20:49.002Z,20.8
2017-07-01T13:21:57.087Z,20.9
2017-07-01T13:23:05.172Z,20.9
2017-07-01T13:24:13.260Z,20.8
2017-07-01T13:25:21.347Z,20.8
2017-07-01T13:26:29.435Z,20.9
2017-07-01T13:27:37.546Z,20.9
2017-07-01T13:28:45.607Z,20.9
2017-07-01T13:29:53.696Z,20.9
2017-07-01T13:31:01.781Z,20.8
2017-07-01T13:32:09.866Z,20.9
2017-07-01T13:33:17.954Z,20.8
2017-07-01T13:34:26.039Z,20.9
2017-07-01T13:35:34.128Z,20.8
2017-07-01T13:36:42.216Z,20.8
2017-07-01T13:37:50.303Z,20.9
2017-07-01T13:38:58.388Z,20.9
2017-07-01T13:40:06.479Z,20.8
2017-07-01T13:41:14.561Z,20.8
2017-07-01T13:42:22.647Z,20.9
2017-07-01T13:43:30.737Z,20.8
2017-07-01T13:44:38.824Z,20.9
2017-07-01T13:45:46.912Z,20.9
2017-07-01T13:46:54.998Z,20.9
2017-07-01T13:48:03.085Z,20.9
2017-07-01T13:49:11.171Z,20.8
2017-07-01T13:50:19.258Z,20.9
2017-07-01T13:51:27.343Z,20.9
2017-07-01T13:52:35.430Z,20.9
2017-07-01T13:53:43.518Z,20.8
2017-07-01T13:54:51.607Z,20.9
2017-07-01T13:55:59.692Z,20.8
2017-07-01T13:57:07.780Z,20.8
2017-07-01T13:58:15.868Z,20.9
2017-07-01T13:59:23.955Z,20.9
2017-07-01T14:00:32.038Z,20.9
2017-07-01T14:01:40.127Z,20.9
2017-07-01T14:02:48.238Z,20.9
2017-07-01T14:03:56.302Z,20.9
2017-07-01T14:05:04.388Z,20.9
2017-07-01T14:06:12.476Z,20.9
2017-07-01T14:07:20.563Z,20.9
2017-07-01T14:08:28.651Z,20.9
2017-07-01T14:09:36.737Z,20.9
2017-07-01T14:10:44.823Z,20.9
2017-07-01T14:11:52.908Z,20.9
2017-07-01T14:13:00.998Z,20.8
2017-07-01T14:14:09.083Z,20.9
2017-07-01T14:15:17.172Z,20.9
2017-07-01T14:16:25.258Z,20.9
2017-07-01T14:17:33.344Z,20.9
2017-07-01T14:18:41.432Z,20.9
2017-07-01T14:19:49.521Z,20.9
2017-07-01T14:20:57.607Z,20.9
2017-07-01T14:22:05.691Z,20.9
2017-07-01T14:23:13.781Z,20.9
2017-07-01T14:24:21.869Z,20.9
2017-07-01T14:25:29.953Z,20.9
2017-07-01T14:26:38.042Z,20.9
2017-07-01T14:27:46.128Z,20.9
2017-07-01T14:28:54.227Z,20.9
2017-07-01T14:30:02.309Z,20.9
2017-07-01T14:31:10.396Z,20.9
2017-07-01T14:32:18.484Z,20.9
2017-07-01T14:33:26.571Z,20.9
2017-07-01T14:34:34.660Z,20.9
2017-07-01T14:35:42.746Z,20.9
2017-07-01T14:36:50.835Z,20.9
2017-07-01T14:37:58.923Z,20.9
2017-07-01T14:39:07.006Z,20.9
2017-07-01T14:40:15.093Z,20.9
2017-07-01T14:41:23.179Z,20.9
2017-07-01T14:42:31.270Z,20.9
2017-07-01T14:43:39.391Z,20.9
2017-07-01T14:44:47.443Z,20.8
2017-07-01T14:45:55.530Z,20.8
2017-07-01T14:47:03.616Z,20.8
2017-07-01T14:48:11.702Z,20.8
2017-07-01T14:49:19.787Z,20.7
2017-07-01T14:50:27.874Z,20.6
2017-07-01T14:51:35.962Z,20.7
2017-07-01T14:52:44.049Z,20.7
2017-07-01T14:53:52.135Z,20.7
2017-07-01T14:55:00.221Z,20.7
2017-07-01T14:56:08.309Z,20.7
2017-07-01T14:57:16.395Z,20.7
2017-07-01T14:58:24.485Z,20.7
2017-07-01T14:59:32.568Z,20.7
2017-07-01T15:00:40.654Z,20.7
2017-07-01T15:01:48.740Z,20.7
2017-07-01T15:02:56.828Z,20.8
2017-07-01T15:04:04.914Z,20.8
2017-07-01T15:05:13.002Z,20.8
2017-07-01T15:06:21.088Z,20.8
2017-07-01T15:07:29.175Z,20.8
2017-07-01T15:08:37.261Z,20.9
2017-07-01T15:09:45.349Z,20.8
2017-07-01T15:10:53.435Z,20.8
2017-07-01T15:12:01.521Z,20.9
2017-07-01T15:13:09.607Z,20.8
2017-07-01T15:14:17.696Z,20.8